LFHP/LPY METAR and TAF weather

Enter ICAO airport designator
Station Type Date Time Source
LFHP METAR 2019/06/17 19:00 UTC NOAA

LFHP 171900Z AUTO 00000KT CAVOK 23/04 Q1018


Station Type Date Time Source
LFHP Decoded METAR 2019/06/17 19:00 UTC NOAA

Le Puy, France (LFHP) 45-05N 003-46E 833M
Jun 17, 2019 - 03:00 PM EDT / 2019.06.17 1900 UTC
Wind: Calm:0
Visibility: greater than 7 mile(s):0
Temperature: 73 F (23 C)
Dew Point: 39 F (4 C)
Relative Humidity: 28%
Pressure (altimeter): 30.06 in. Hg (1018 hPa)
ob: LFHP 171900Z AUTO 00000KT CAVOK 23/04 Q1018
cycle: 19

Station Type Date Time Source
LFHP TAF UTC NOAA

Error!

Example: see airport list